CheckWX is a tool to help pilots better visualize weather data.  It is not intended as a substitute for an official pre-flight weather briefing.

10:43:26 UTC

EGHQ TAF
Newquay Cornwall Airport
Newquay, United Kingdom
TAF EGHQ 160756Z 1609/1618 13007KT 9999 FEW045 BECMG 1614/1617 31010KT

Jul-16@
09:00 UTC

Jul-16 @ 09:00 UTC

Jul-16@
14:00 UTC

Jul-16 @ 14:00 UTC

TAF EGHQ 160756Z 1609/1618 13007KT 9999 FEW045
Wind
  • 130° at 7 KTS
Cloud Levels
  • Few at 4,500' AGL

Jul-16@
14:00 UTC

Jul-16 @ 14:00 UTC

Jul-16@
18:00 UTC

Jul-16 @ 18:00 UTC

BECMG 1614/1617 31010KT

Becoming

Becoming Conditions expected by Tue, Jul 16, 2019 @ 17:00 UTC

Wind
  • 310° at 10 KTS
Cloud Levels
  • Few at 4,500' AGL